sensor_id;sensor_type;location;lat;lon;timestamp;pressure;altitude;pressure_sealevel;temperature;humidity
9129;BME280;4599;50.906;6.786;2022-07-21T00:02:52;75700.91;;;-142.83;74.41
9129;BME280;4599;50.906;6.786;2022-07-21T00:06:54;75725.81;;;-142.83;73.07
9129;BME280;4599;50.906;6.786;2022-07-21T00:10:56;75725.81;;;-142.83;75.39
9129;BME280;4599;50.906;6.786;2022-07-21T00:14:57;75756.94;;;-142.83;74.57
9129;BME280;4599;50.906;6.786;2022-07-21T00:19:00;75769.41;;;-142.83;74.69
9129;BME280;4599;50.906;6.786;2022-07-21T00:23:03;75777.72;;;-142.83;73.79
9129;BME280;4599;50.906;6.786;2022-07-21T00:27:04;75777.72;;;-142.83;74.19
9129;BME280;4599;50.906;6.786;2022-07-21T00:31:06;75767.34;;;-142.83;75.12
9129;BME280;4599;50.906;6.786;2022-07-21T00:35:11;75788.09;;;-142.83;76.75
9129;BME280;4599;50.906;6.786;2022-07-21T00:39:13;75796.41;;;-142.83;76.02
9129;BME280;4599;50.906;6.786;2022-07-21T00:43:14;75798.47;;;-142.83;76.02
9129;BME280;4599;50.906;6.786;2022-07-21T00:47:19;75771.47;;;-142.83;74.33
9129;BME280;4599;50.906;6.786;2022-07-21T00:51:22;75790.16;;;-142.83;73.79
9129;BME280;4599;50.906;6.786;2022-07-21T00:55:25;75796.41;;;-142.83;74.62
9129;BME280;4599;50.906;6.786;2022-07-21T00:59:28;75779.78;;;-142.83;73.93
9129;BME280;4599;50.906;6.786;2022-07-21T01:03:30;75794.31;;;-142.83;74.00
9129;BME280;4599;50.906;6.786;2022-07-21T01:07:33;75779.78;;;-142.83;76.04
9129;BME280;4599;50.906;6.786;2022-07-21T01:11:38;75790.16;;;-142.83;73.96
9129;BME280;4599;50.906;6.786;2022-07-21T01:15:41;75781.88;;;-142.83;74.28
9129;BME280;4599;50.906;6.786;2022-07-21T01:19:44;75771.47;;;-142.83;75.98
9129;BME280;4599;50.906;6.786;2022-07-21T01:23:47;75800.53;;;-142.83;76.48
9129;BME280;4599;50.906;6.786;2022-07-21T01:27:49;75804.69;;;-142.83;75.57
9129;BME280;4599;50.906;6.786;2022-07-21T01:31:50;75802.63;;;-142.83;75.34
9129;BME280;4599;50.906;6.786;2022-07-21T01:35:52;75777.72;;;-142.83;76.34
9129;BME280;4599;50.906;6.786;2022-07-21T01:39:55;75788.09;;;-142.83;77.11
9129;BME280;4599;50.906;6.786;2022-07-21T01:43:59;75792.25;;;-142.83;75.59
9129;BME280;4599;50.906;6.786;2022-07-21T01:48:01;75781.88;;;-142.83;76.24
9129;BME280;4599;50.906;6.786;2022-07-21T01:52:02;75800.53;;;-142.83;75.46
9129;BME280;4599;50.906;6.786;2022-07-21T01:56:06;75802.63;;;-142.83;75.19
9129;BME280;4599;50.906;6.786;2022-07-21T02:00:09;75792.25;;;-142.83;74.22
9129;BME280;4599;50.906;6.786;2022-07-21T02:04:11;75817.16;;;-142.83;73.57
9129;BME280;4599;50.906;6.786;2022-07-21T02:08:12;75810.94;;;-142.83;74.15
9129;BME280;4599;50.906;6.786;2022-07-21T02:12:17;75835.84;;;-142.83;73.56
9129;BME280;4599;50.906;6.786;2022-07-21T02:16:19;75823.38;;;-142.83;75.21
9129;BME280;4599;50.906;6.786;2022-07-21T02:20:22;75848.28;;;-142.83;75.39
9129;BME280;4599;50.906;6.786;2022-07-21T02:24:24;75850.38;;;-142.83;75.37
9129;BME280;4599;50.906;6.786;2022-07-21T02:28:27;75869.06;;;-142.83;76.59
9129;BME280;4599;50.906;6.786;2022-07-21T02:32:29;75850.38;;;-142.83;77.67
9129;BME280;4599;50.906;6.786;2022-07-21T02:36:30;75852.44;;;-142.83;76.95
9129;BME280;4599;50.906;6.786;2022-07-21T02:40:32;75850.38;;;-142.83;77.34
9129;BME280;4599;50.906;6.786;2022-07-21T02:44:35;75848.28;;;-142.83;77.88
9129;BME280;4599;50.906;6.786;2022-07-21T02:48:37;75852.44;;;-142.83;77.07
9129;BME280;4599;50.906;6.786;2022-07-21T02:52:38;75869.06;;;-142.83;78.72
9129;BME280;4599;50.906;6.786;2022-07-21T02:56:40;75856.59;;;-142.83;78.57
9129;BME280;4599;50.906;6.786;2022-07-21T03:00:45;75842.06;;;-142.83;77.74
9129;BME280;4599;50.906;6.786;2022-07-21T03:04:47;75854.53;;;-142.83;78.78
9129;BME280;4599;50.906;6.786;2022-07-21T03:08:49;75854.53;;;-142.83;78.59
9129;BME280;4599;50.906;6.786;2022-07-21T03:12:51;75858.66;;;-142.83;79.01
9129;BME280;4599;50.906;6.786;2022-07-21T03:16:54;75850.38;;;-142.83;77.86
9129;BME280;4599;50.906;6.786;2022-07-21T03:20:56;75871.13;;;-142.83;78.51
9129;BME280;4599;50.906;6.786;2022-07-21T03:24:59;75881.50;;;-142.83;77.88
9129;BME280;4599;50.906;6.786;2022-07-21T03:29:02;75856.59;;;-142.83;78.13
9129;BME280;4599;50.906;6.786;2022-07-21T03:33:05;75881.50;;;-142.83;78.61
9129;BME280;4599;50.906;6.786;2022-07-21T03:37:07;75883.59;;;-142.83;78.62
9129;BME280;4599;50.906;6.786;2022-07-21T03:41:08;75881.50;;;-142.83;78.27
9129;BME280;4599;50.906;6.786;2022-07-21T03:45:14;75887.72;;;-142.83;78.28
9129;BME280;4599;50.906;6.786;2022-07-21T03:49:16;75871.13;;;-142.83;76.63
9129;BME280;4599;50.906;6.786;2022-07-21T03:53:18;75879.44;;;-142.83;77.54
9129;BME280;4599;50.906;6.786;2022-07-21T03:57:20;75877.34;;;-142.83;77.49
9129;BME280;4599;50.906;6.786;2022-07-21T04:01:22;75885.66;;;-142.83;78.05
9129;BME280;4599;50.906;6.786;2022-07-21T04:05:25;75883.59;;;-142.83;78.73
9129;BME280;4599;50.906;6.786;2022-07-21T04:09:27;75869.06;;;-142.83;77.56
9129;BME280;4599;50.906;6.786;2022-07-21T04:13:29;75850.38;;;-142.83;78.21
9129;BME280;4599;50.906;6.786;2022-07-21T04:17:31;75844.13;;;-142.83;78.83
9129;BME280;4599;50.906;6.786;2022-07-21T04:21:34;75846.22;;;-142.83;78.58
9129;BME280;4599;50.906;6.786;2022-07-21T04:25:36;75850.38;;;-142.83;78.14
9129;BME280;4599;50.906;6.786;2022-07-21T04:29:37;75829.59;;;-142.83;79.74
9129;BME280;4599;50.906;6.786;2022-07-21T04:33:39;75829.59;;;-142.83;80.53
9129;BME280;4599;50.906;6.786;2022-07-21T04:37:42;75842.06;;;-142.83;79.87
9129;BME280;4599;50.906;6.786;2022-07-21T04:41:44;75858.66;;;-142.83;80.67
9129;BME280;4599;50.906;6.786;2022-07-21T04:45:46;75854.53;;;-142.83;80.61
9129;BME280;4599;50.906;6.786;2022-07-21T04:49:47;75852.44;;;-142.83;81.08
9129;BME280;4599;50.906;6.786;2022-07-21T04:53:50;75871.13;;;-142.83;79.13
9129;BME280;4599;50.906;6.786;2022-07-21T04:57:53;75866.97;;;-142.83;78.29
9129;BME280;4599;50.906;6.786;2022-07-21T05:01:55;75846.22;;;-142.83;78.43
9129;BME280;4599;50.906;6.786;2022-07-21T05:05:56;75858.66;;;-142.83;78.94
9129;BME280;4599;50.906;6.786;2022-07-21T05:10:03;75862.81;;;-142.83;78.54
9129;BME280;4599;50.906;6.786;2022-07-21T05:14:05;75883.59;;;-142.83;78.68
9129;BME280;4599;50.906;6.786;2022-07-21T05:18:15;75848.28;;;-142.83;77.06
9129;BME280;4599;50.906;6.786;2022-07-21T05:22:17;75871.13;;;-142.83;77.18
9129;BME280;4599;50.906;6.786;2022-07-21T05:26:20;75875.28;;;-142.83;77.08
9129;BME280;4599;50.906;6.786;2022-07-21T05:30:21;75900.19;;;-142.83;78.87
9129;BME280;4599;50.906;6.786;2022-07-21T05:34:24;75904.34;;;-142.83;79.18
9129;BME280;4599;50.906;6.786;2022-07-21T05:38:26;75902.28;;;-142.83;78.89
9129;BME280;4599;50.906;6.786;2022-07-21T05:42:30;75900.19;;;-142.83;78.48
9129;BME280;4599;50.906;6.786;2022-07-21T05:46:31;75904.34;;;-142.83;77.47
9129;BME280;4599;50.906;6.786;2022-07-21T05:50:33;75906.41;;;-142.83;79.71
9129;BME280;4599;50.906;6.786;2022-07-21T05:54:35;75916.81;;;-142.83;78.05
9129;BME280;4599;50.906;6.786;2022-07-21T05:58:40;75914.72;;;-142.83;77.52
9129;BME280;4599;50.906;6.786;2022-07-21T06:02:43;75929.25;;;-142.83;76.52
9129;BME280;4599;50.906;6.786;2022-07-21T06:06:44;75941.72;;;-142.83;76.09
9129;BME280;4599;50.906;6.786;2022-07-21T06:10:46;75920.94;;;-142.83;75.25
9129;BME280;4599;50.906;6.786;2022-07-21T06:14:49;75904.34;;;-142.83;74.29
9129;BME280;4599;50.906;6.786;2022-07-21T06:18:50;75906.41;;;-142.83;73.29
9129;BME280;4599;50.906;6.786;2022-07-21T06:22:52;75875.28;;;-142.83;73.39
9129;BME280;4599;50.906;6.786;2022-07-21T06:26:54;75819.22;;;-142.83;73.18
9129;BME280;4599;50.906;6.786;2022-07-21T06:30:57;75744.50;;;-142.83;70.36
9129;BME280;4599;50.906;6.786;2022-07-21T06:34:59;75667.69;;;-142.83;67.10
9129;BME280;4599;50.906;6.786;2022-07-21T06:39:00;75636.56;;;-142.83;65.54
9129;BME280;4599;50.906;6.786;2022-07-21T06:43:02;75555.59;;;-142.83;63.39
9129;BME280;4599;50.906;6.786;2022-07-21T06:47:25;75497.47;;;-142.83;62.10
9129;BME280;4599;50.906;6.786;2022-07-21T06:51:27;75356.31;;;-142.83;58.32
9129;BME280;4599;50.906;6.786;2022-07-21T06:55:29;75350.09;;;-142.83;56.60
9129;BME280;4599;50.906;6.786;2022-07-21T06:59:30;75314.81;;;-142.83;56.51
9129;BME280;4599;50.906;6.786;2022-07-21T07:03:33;75240.09;;;-142.83;54.88
9129;BME280;4599;50.906;6.786;2022-07-21T07:07:36;75306.50;;;-142.83;56.39
9129;BME280;4599;50.906;6.786;2022-07-21T07:11:38;75246.31;;;-142.83;53.63
9129;BME280;4599;50.906;6.786;2022-07-21T07:15:40;75269.13;;;-142.83;53.59
9129;BME280;4599;50.906;6.786;2022-07-21T07:19:43;75306.50;;;-142.83;55.76
9129;BME280;4599;50.906;6.786;2022-07-21T07:23:45;75377.06;;;-142.83;57.66
9129;BME280;4599;50.906;6.786;2022-07-21T07:27:48;75406.13;;;-142.83;58.74
9129;BME280;4599;50.906;6.786;2022-07-21T07:31:50;75470.47;;;-142.83;59.99
9129;BME280;4599;50.906;6.786;2022-07-21T07:35:53;75285.75;;;-142.83;56.04
9129;BME280;4599;50.906;6.786;2022-07-21T07:39:55;75184.03;;;-142.83;53.34
9129;BME280;4599;50.906;6.786;2022-07-21T07:43:57;75071.97;;;-142.83;51.83
9129;BME280;4599;50.906;6.786;2022-07-21T07:47:59;75123.84;;;-142.83;52.29
9129;BME280;4599;50.906;6.786;2022-07-21T07:52:02;75252.53;;;-142.83;54.69
9129;BME280;4599;50.906;6.786;2022-07-21T07:56:04;75273.28;;;-142.83;54.76
9129;BME280;4599;50.906;6.786;2022-07-21T08:00:08;75190.25;;;-142.83;52.94
9129;BME280;4599;50.906;6.786;2022-07-21T08:04:30;74961.94;;;-142.83;49.46
9129;BME280;4599;50.906;6.786;2022-07-21T08:08:33;74937.06;;;-142.83;48.63
9129;BME280;4599;50.906;6.786;2022-07-21T08:12:37;75044.97;;;-142.83;48.50
9129;BME280;4599;50.906;6.786;2022-07-21T08:16:38;75053.28;;;-142.83;49.88
9129;BME280;4599;50.906;6.786;2022-07-21T08:20:40;75138.38;;;-142.83;50.65
9129;BME280;4599;50.906;6.786;2022-07-21T08:24:43;75231.78;;;-142.83;53.99
9129;BME280;4599;50.906;6.786;2022-07-21T08:28:45;75275.38;;;-142.83;52.25
9129;BME280;4599;50.906;6.786;2022-07-21T08:32:46;75296.13;;;-142.83;51.90
9129;BME280;4599;50.906;6.786;2022-07-21T08:36:48;75289.91;;;-142.83;51.83
9129;BME280;4599;50.906;6.786;2022-07-21T08:40:52;75250.47;;;-142.83;51.41
9129;BME280;4599;50.906;6.786;2022-07-21T08:44:53;75163.28;;;-142.83;49.35
9129;BME280;4599;50.906;6.786;2022-07-21T08:48:56;75069.88;;;-142.83;48.09
9129;BME280;4599;50.906;6.786;2022-07-21T08:52:59;75190.25;;;-142.83;49.73
9129;BME280;4599;50.906;6.786;2022-07-21T08:57:03;75271.22;;;-142.83;50.90
9129;BME280;4599;50.906;6.786;2022-07-21T09:01:05;75316.88;;;-142.83;52.24
9129;BME280;4599;50.906;6.786;2022-07-21T09:05:08;75256.69;;;-142.83;51.22
9129;BME280;4599;50.906;6.786;2022-07-21T09:09:17;75196.50;;;-142.83;51.01
9129;BME280;4599;50.906;6.786;2022-07-21T09:13:20;75215.19;;;-142.83;49.25
9129;BME280;4599;50.906;6.786;2022-07-21T09:17:22;75208.94;;;-142.83;48.54
9129;BME280;4599;50.906;6.786;2022-07-21T09:21:44;75229.69;;;-142.83;49.99
9129;BME280;4599;50.906;6.786;2022-07-21T09:25:47;75291.97;;;-142.83;48.72
9129;BME280;4599;50.906;6.786;2022-07-21T09:29:53;75335.56;;;-142.83;49.72
9129;BME280;4599;50.906;6.786;2022-07-21T09:33:56;75285.75;;;-142.83;49.69
9129;BME280;4599;50.906;6.786;2022-07-21T09:38:11;75229.69;;;-142.83;49.38
9129;BME280;4599;50.906;6.786;2022-07-21T09:42:16;75186.13;;;-142.83;47.77
9129;BME280;4599;50.906;6.786;2022-07-21T09:46:22;75190.25;;;-142.83;49.54
9129;BME280;4599;50.906;6.786;2022-07-21T09:50:23;75229.69;;;-142.83;47.86
9129;BME280;4599;50.906;6.786;2022-07-21T09:54:29;75269.13;;;-142.83;48.91
9129;BME280;4599;50.906;6.786;2022-07-21T09:58:31;75308.56;;;-142.83;49.00
9129;BME280;4599;50.906;6.786;2022-07-21T10:02:34;75269.13;;;-142.83;49.45
9129;BME280;4599;50.906;6.786;2022-07-21T10:06:38;75223.47;;;-142.83;47.30
9129;BME280;4599;50.906;6.786;2022-07-21T10:10:40;75213.09;;;-142.83;47.38
9129;BME280;4599;50.906;6.786;2022-07-21T10:15:02;75325.19;;;-142.83;48.16
9129;BME280;4599;50.906;6.786;2022-07-21T10:19:10;75341.78;;;-142.83;49.20
9129;BME280;4599;50.906;6.786;2022-07-21T10:23:18;75368.78;;;-142.83;50.01
9129;BME280;4599;50.906;6.786;2022-07-21T10:27:23;75406.13;;;-142.83;49.22
9129;BME280;4599;50.906;6.786;2022-07-21T10:31:44;75424.81;;;-142.83;50.55
9129;BME280;4599;50.906;6.786;2022-07-21T10:35:49;75433.13;;;-142.83;52.20
9129;BME280;4599;50.906;6.786;2022-07-21T10:39:51;75468.41;;;-142.83;52.95
9129;BME280;4599;50.906;6.786;2022-07-21T10:43:53;75505.78;;;-142.83;57.94
9129;BME280;4599;50.906;6.786;2022-07-21T10:47:55;75503.69;;;-142.83;59.07
9129;BME280;4599;50.906;6.786;2022-07-21T10:51:58;75518.22;;;-142.83;60.44
9129;BME280;4599;50.906;6.786;2022-07-21T10:55:59;75526.53;;;-142.83;59.53
9129;BME280;4599;50.906;6.786;2022-07-21T11:00:21;75512.00;;;-142.83;61.23
9129;BME280;4599;50.906;6.786;2022-07-21T11:04:23;75568.03;;;-142.83;62.07
9129;BME280;4599;50.906;6.786;2022-07-21T11:08:31;75601.25;;;-142.83;65.17
9129;BME280;4599;50.906;6.786;2022-07-21T11:12:54;75592.97;;;-142.83;66.08
9129;BME280;4599;50.906;6.786;2022-07-21T11:17:10;75617.88;;;-142.83;65.05
9129;BME280;4599;50.906;6.786;2022-07-21T11:21:25;75644.84;;;-142.83;68.26
9129;BME280;4599;50.906;6.786;2022-07-21T11:25:28;75688.44;;;-142.83;68.62
9129;BME280;4599;50.906;6.786;2022-07-21T11:29:31;75719.59;;;-142.83;68.87
9129;BME280;4599;50.906;6.786;2022-07-21T11:33:35;75771.47;;;-142.83;70.66
9129;BME280;4599;50.906;6.786;2022-07-21T11:37:37;75819.22;;;-142.83;75.65
9129;BME280;4599;50.906;6.786;2022-07-21T11:41:42;75860.75;;;-142.83;76.47
9129;BME280;4599;50.906;6.786;2022-07-21T11:45:51;75846.22;;;-142.83;75.78
9129;BME280;4599;50.906;6.786;2022-07-21T11:49:54;75875.28;;;-142.83;76.84
9129;BME280;4599;50.906;6.786;2022-07-21T11:53:56;75871.13;;;-142.83;76.42
9129;BME280;4599;50.906;6.786;2022-07-21T11:57:59;75829.59;;;-142.83;76.34
9129;BME280;4599;50.906;6.786;2022-07-21T12:02:05;75829.59;;;-142.83;76.58
9129;BME280;4599;50.906;6.786;2022-07-21T12:06:08;75846.22;;;-142.83;76.21
9129;BME280;4599;50.906;6.786;2022-07-21T12:10:12;75844.13;;;-142.83;76.31
9129;BME280;4599;50.906;6.786;2022-07-21T12:14:15;75817.16;;;-142.83;76.85
9129;BME280;4599;50.906;6.786;2022-07-21T12:18:18;75825.47;;;-142.83;77.51
9129;BME280;4599;50.906;6.786;2022-07-21T12:22:32;75817.16;;;-142.83;75.25
9129;BME280;4599;50.906;6.786;2022-07-21T12:26:34;75808.84;;;-142.83;75.98
9129;BME280;4599;50.906;6.786;2022-07-21T12:30:39;75808.84;;;-142.83;75.42
9129;BME280;4599;50.906;6.786;2022-07-21T12:34:50;75823.38;;;-142.83;77.18
9129;BME280;4599;50.906;6.786;2022-07-21T12:38:52;75848.28;;;-142.83;76.88
9129;BME280;4599;50.906;6.786;2022-07-21T12:43:06;75840.00;;;-142.83;75.63
9129;BME280;4599;50.906;6.786;2022-07-21T12:47:19;75815.06;;;-142.83;77.23
9129;BME280;4599;50.906;6.786;2022-07-21T12:51:22;75823.38;;;-142.83;76.74
9129;BME280;4599;50.906;6.786;2022-07-21T12:55:24;75819.22;;;-142.83;76.45
9129;BME280;4599;50.906;6.786;2022-07-21T12:59:25;75823.38;;;-142.83;77.63
9129;BME280;4599;50.906;6.786;2022-07-21T13:03:29;75823.38;;;-142.83;77.61
9129;BME280;4599;50.906;6.786;2022-07-21T13:07:32;75781.88;;;-142.83;76.94
9129;BME280;4599;50.906;6.786;2022-07-21T13:11:33;75773.56;;;-142.83;77.11
9129;BME280;4599;50.906;6.786;2022-07-21T13:15:35;75779.78;;;-142.83;77.39
9129;BME280;4599;50.906;6.786;2022-07-21T13:19:37;75761.09;;;-142.83;76.86
9129;BME280;4599;50.906;6.786;2022-07-21T13:23:39;75771.47;;;-142.83;76.69
9129;BME280;4599;50.906;6.786;2022-07-21T13:27:41;75796.41;;;-142.83;76.65
9129;BME280;4599;50.906;6.786;2022-07-21T13:31:48;75833.75;;;-142.83;76.38
9129;BME280;4599;50.906;6.786;2022-07-21T13:35:51;75883.59;;;-142.83;79.05
9129;BME280;4599;50.906;6.786;2022-07-21T13:39:53;75869.06;;;-142.83;79.06
9129;BME280;4599;50.906;6.786;2022-07-21T13:44:14;75858.66;;;-142.83;77.42
9129;BME280;4599;50.906;6.786;2022-07-21T13:48:16;75864.91;;;-142.83;77.93
9129;BME280;4599;50.906;6.786;2022-07-21T13:52:19;75844.13;;;-142.83;78.31
9129;BME280;4599;50.906;6.786;2022-07-21T13:56:25;75848.28;;;-142.83;78.45
9129;BME280;4599;50.906;6.786;2022-07-21T14:00:26;75829.59;;;-142.83;77.55
9129;BME280;4599;50.906;6.786;2022-07-21T14:04:28;75862.81;;;-142.83;77.40
9129;BME280;4599;50.906;6.786;2022-07-21T14:08:31;75875.28;;;-142.83;77.72
9129;BME280;4599;50.906;6.786;2022-07-21T14:12:33;75881.50;;;-142.83;77.58
9129;BME280;4599;50.906;6.786;2022-07-21T14:16:42;75887.72;;;-142.83;77.60
9129;BME280;4599;50.906;6.786;2022-07-21T14:20:44;75871.13;;;-142.83;76.48
9129;BME280;4599;50.906;6.786;2022-07-21T14:24:48;75850.38;;;-142.83;76.48
9129;BME280;4599;50.906;6.786;2022-07-21T14:28:49;75883.59;;;-142.83;77.55
9129;BME280;4599;50.906;6.786;2022-07-21T14:32:51;75879.44;;;-142.83;77.18
9129;BME280;4599;50.906;6.786;2022-07-21T14:36:53;75889.81;;;-142.83;78.10
9129;BME280;4599;50.906;6.786;2022-07-21T14:40:59;75902.28;;;-142.83;77.11
9129;BME280;4599;50.906;6.786;2022-07-21T14:45:02;75883.59;;;-142.83;77.08
9129;BME280;4599;50.906;6.786;2022-07-21T14:49:11;75906.41;;;-142.83;76.41
9129;BME280;4599;50.906;6.786;2022-07-21T14:53:12;75904.34;;;-142.83;76.33
9129;BME280;4599;50.906;6.786;2022-07-21T14:57:15;75889.81;;;-142.83;75.29
9129;BME280;4599;50.906;6.786;2022-07-21T15:01:17;75896.03;;;-142.83;74.62
9129;BME280;4599;50.906;6.786;2022-07-21T15:05:19;75891.88;;;-142.83;75.65
9129;BME280;4599;50.906;6.786;2022-07-21T15:09:21;75862.81;;;-142.83;75.03
9129;BME280;4599;50.906;6.786;2022-07-21T15:13:24;75835.84;;;-142.83;74.26
9129;BME280;4599;50.906;6.786;2022-07-21T15:17:25;75866.97;;;-142.83;73.42
9129;BME280;4599;50.906;6.786;2022-07-21T15:21:27;75891.88;;;-142.83;75.67
9129;BME280;4599;50.906;6.786;2022-07-21T15:25:28;75893.97;;;-142.83;74.08
9129;BME280;4599;50.906;6.786;2022-07-21T15:29:31;75912.66;;;-142.83;74.72
9129;BME280;4599;50.906;6.786;2022-07-21T15:33:33;75908.50;;;-142.83;76.98
9129;BME280;4599;50.906;6.786;2022-07-21T15:37:34;75887.72;;;-142.83;76.05
9129;BME280;4599;50.906;6.786;2022-07-21T15:41:38;75852.44;;;-142.83;73.13
9129;BME280;4599;50.906;6.786;2022-07-21T15:45:57;75842.06;;;-142.83;72.26
9129;BME280;4599;50.906;6.786;2022-07-21T15:49:59;75848.28;;;-142.83;72.86
9129;BME280;4599;50.906;6.786;2022-07-21T15:54:00;75852.44;;;-142.83;72.72
9129;BME280;4599;50.906;6.786;2022-07-21T15:58:02;75846.22;;;-142.83;71.35
9129;BME280;4599;50.906;6.786;2022-07-21T16:02:06;75908.50;;;-142.83;72.60
9129;BME280;4599;50.906;6.786;2022-07-21T16:06:09;75893.97;;;-142.83;71.27
9129;BME280;4599;50.906;6.786;2022-07-21T16:10:12;75885.66;;;-142.83;72.08
9129;BME280;4599;50.906;6.786;2022-07-21T16:14:13;75902.28;;;-142.83;71.58
9129;BME280;4599;50.906;6.786;2022-07-21T16:18:16;75893.97;;;-142.83;71.80
9129;BME280;4599;50.906;6.786;2022-07-21T16:22:18;75877.34;;;-142.83;71.27
9129;BME280;4599;50.906;6.786;2022-07-21T16:26:20;75906.41;;;-142.83;71.21
9129;BME280;4599;50.906;6.786;2022-07-21T16:30:21;75896.03;;;-142.83;70.90
9129;BME280;4599;50.906;6.786;2022-07-21T16:34:24;75925.09;;;-142.83;71.50
9129;BME280;4599;50.906;6.786;2022-07-21T16:38:26;75935.47;;;-142.83;71.10
9129;BME280;4599;50.906;6.786;2022-07-21T16:42:27;75954.16;;;-142.83;71.88
9129;BME280;4599;50.906;6.786;2022-07-21T16:46:29;75933.41;;;-142.83;71.55
9129;BME280;4599;50.906;6.786;2022-07-21T16:50:32;75958.31;;;-142.83;72.09
9129;BME280;4599;50.906;6.786;2022-07-21T16:54:33;75960.41;;;-142.83;72.29
9129;BME280;4599;50.906;6.786;2022-07-21T16:58:35;75970.78;;;-142.83;72.26
9129;BME280;4599;50.906;6.786;2022-07-21T17:02:38;75954.16;;;-142.83;72.74
9129;BME280;4599;50.906;6.786;2022-07-21T17:06:40;76012.28;;;-142.83;76.28
9129;BME280;4599;50.906;6.786;2022-07-21T17:10:42;76024.75;;;-142.83;76.61
9129;BME280;4599;50.906;6.786;2022-07-21T17:14:43;76020.59;;;-142.83;76.09
9129;BME280;4599;50.906;6.786;2022-07-21T17:18:45;76028.91;;;-142.83;76.45
9129;BME280;4599;50.906;6.786;2022-07-21T17:22:48;76041.38;;;-142.83;77.92
9129;BME280;4599;50.906;6.786;2022-07-21T17:26:50;76028.91;;;-142.83;77.72
9129;BME280;4599;50.906;6.786;2022-07-21T17:30:51;76033.06;;;-142.83;76.66
9129;BME280;4599;50.906;6.786;2022-07-21T17:34:53;76045.50;;;-142.83;76.60
9129;BME280;4599;50.906;6.786;2022-07-21T17:38:56;76033.06;;;-142.83;77.04
9129;BME280;4599;50.906;6.786;2022-07-21T17:42:57;76053.81;;;-142.83;77.65
9129;BME280;4599;50.906;6.786;2022-07-21T17:46:59;76026.84;;;-142.83;77.25
9129;BME280;4599;50.906;6.786;2022-07-21T17:51:00;76022.69;;;-142.83;75.70
9129;BME280;4599;50.906;6.786;2022-07-21T17:55:04;76035.13;;;-142.83;74.90
9129;BME280;4599;50.906;6.786;2022-07-21T17:59:06;76053.81;;;-142.83;75.28
9129;BME280;4599;50.906;6.786;2022-07-21T18:03:08;76049.66;;;-142.83;75.11
9129;BME280;4599;50.906;6.786;2022-07-21T18:07:09;76055.91;;;-142.83;76.61
9129;BME280;4599;50.906;6.786;2022-07-21T18:11:13;76084.97;;;-142.83;77.32
9129;BME280;4599;50.906;6.786;2022-07-21T18:15:18;76066.28;;;-142.83;77.77
9129;BME280;4599;50.906;6.786;2022-07-21T18:19:19;76099.50;;;-142.83;77.86
9129;BME280;4599;50.906;6.786;2022-07-21T18:23:21;76095.34;;;-142.83;77.39
9129;BME280;4599;50.906;6.786;2022-07-21T18:27:24;76099.50;;;-142.83;77.11
9129;BME280;4599;50.906;6.786;2022-07-21T18:31:26;76114.03;;;-142.83;77.81
9129;BME280;4599;50.906;6.786;2022-07-21T18:35:27;76103.66;;;-142.83;76.97
9129;BME280;4599;50.906;6.786;2022-07-21T18:39:29;76116.09;;;-142.83;77.59
9129;BME280;4599;50.906;6.786;2022-07-21T18:43:32;76103.66;;;-142.83;77.25
9129;BME280;4599;50.906;6.786;2022-07-21T18:47:33;76091.19;;;-142.83;76.27
9129;BME280;4599;50.906;6.786;2022-07-21T18:51:36;76107.78;;;-142.83;77.58
9129;BME280;4599;50.906;6.786;2022-07-21T18:55:37;76116.09;;;-142.83;77.96
9129;BME280;4599;50.906;6.786;2022-07-21T18:59:40;76126.47;;;-142.83;77.83
9129;BME280;4599;50.906;6.786;2022-07-21T19:03:43;76116.09;;;-142.83;79.03
9129;BME280;4599;50.906;6.786;2022-07-21T19:07:45;76145.16;;;-142.83;79.51
9129;BME280;4599;50.906;6.786;2022-07-21T19:11:47;76153.47;;;-142.83;79.81
9129;BME280;4599;50.906;6.786;2022-07-21T19:15:50;76157.63;;;-142.83;80.58
9129;BME280;4599;50.906;6.786;2022-07-21T19:19:52;76157.63;;;-142.83;80.26
9129;BME280;4599;50.906;6.786;2022-07-21T19:23:53;76165.94;;;-142.83;78.89
9129;BME280;4599;50.906;6.786;2022-07-21T19:27:56;76157.63;;;-142.83;79.00
9129;BME280;4599;50.906;6.786;2022-07-21T19:31:59;76165.94;;;-142.83;79.20
9129;BME280;4599;50.906;6.786;2022-07-21T19:36:01;76172.16;;;-142.83;78.63
9129;BME280;4599;50.906;6.786;2022-07-21T19:40:03;76182.53;;;-142.83;78.80
9129;BME280;4599;50.906;6.786;2022-07-21T19:44:06;76199.16;;;-142.83;79.36
9129;BME280;4599;50.906;6.786;2022-07-21T19:48:08;76197.06;;;-142.83;78.75
9129;BME280;4599;50.906;6.786;2022-07-21T19:52:18;76217.84;;;-142.83;79.49
9129;BME280;4599;50.906;6.786;2022-07-21T19:56:20;76201.22;;;-142.83;78.77
9129;BME280;4599;50.906;6.786;2022-07-21T20:00:21;76199.16;;;-142.83;78.16
9129;BME280;4599;50.906;6.786;2022-07-21T20:04:25;76207.44;;;-142.83;79.08
9129;BME280;4599;50.906;6.786;2022-07-21T20:08:27;76203.28;;;-142.83;78.09
9129;BME280;4599;50.906;6.786;2022-07-21T20:12:28;76228.22;;;-142.83;79.42
9129;BME280;4599;50.906;6.786;2022-07-21T20:16:30;76244.81;;;-142.83;79.34
9129;BME280;4599;50.906;6.786;2022-07-21T20:20:34;76224.06;;;-142.83;78.70
9129;BME280;4599;50.906;6.786;2022-07-21T20:24:35;76215.75;;;-142.83;78.44
9129;BME280;4599;50.906;6.786;2022-07-21T20:28:37;76232.38;;;-142.83;78.12
9129;BME280;4599;50.906;6.786;2022-07-21T20:32:39;76248.97;;;-142.83;78.72
9129;BME280;4599;50.906;6.786;2022-07-21T20:36:42;76236.50;;;-142.83;77.97
9129;BME280;4599;50.906;6.786;2022-07-21T20:40:43;76230.28;;;-142.83;77.79
9129;BME280;4599;50.906;6.786;2022-07-21T20:44:58;76257.28;;;-142.83;78.51
9129;BME280;4599;50.906;6.786;2022-07-21T20:48:59;76246.91;;;-142.83;77.51
9129;BME280;4599;50.906;6.786;2022-07-21T20:53:05;76255.19;;;-142.83;77.03
9129;BME280;4599;50.906;6.786;2022-07-21T20:57:26;76267.66;;;-142.83;76.59
9129;BME280;4599;50.906;6.786;2022-07-21T21:01:28;76253.13;;;-142.83;76.78
9129;BME280;4599;50.906;6.786;2022-07-21T21:05:30;76251.06;;;-142.83;75.97
9129;BME280;4599;50.906;6.786;2022-07-21T21:09:33;76263.50;;;-142.83;75.99
9129;BME280;4599;50.906;6.786;2022-07-21T21:13:35;76278.03;;;-142.83;77.18
9129;BME280;4599;50.906;6.786;2022-07-21T21:17:36;76267.66;;;-142.83;76.63
9129;BME280;4599;50.906;6.786;2022-07-21T21:21:38;76273.88;;;-142.83;77.20
9129;BME280;4599;50.906;6.786;2022-07-21T21:25:41;76286.34;;;-142.83;76.99
9129;BME280;4599;50.906;6.786;2022-07-21T21:29:43;76288.41;;;-142.83;77.49